<?xml version="1.0" encoding="UTF-8" standalone="no" ?>
<gpx xmlns="http://www.topografix.com/GPX/1/1" xmlns:xsi="http://www.w3.org/2001/XMLSchema-instance" xsi:schemaLocation="http://www.topografix.com/GPX/1/1 http://www.topografix.com/GPX/1/1/gpx.xsd" version="1.1" creator="VisuGPX - https://www.visugpx.com">
  <metadata>
    <name>rando façile marche ou vtt</name>
    <desc><![CDATA[macadam et sable]]></desc>
  </metadata>
  <trk>
    <name><![CDATA[rando façile marche ou vtt_1]]></name>
    <trkseg>
      <trkpt lat="44.10654" lon="0.2322">
        <ele>-55</ele>
        <time>2014-12-31T13:01:25Z</time>
      </trkpt>
      <trkpt lat="44.10656" lon="0.23222">
        <ele>-56</ele>
        <time>2014-12-31T13:01:54Z</time>
      </trkpt>
      <trkpt lat="44.10653" lon="0.23193">
        <ele>-56</ele>
        <time>2014-12-31T13:02:24Z</time>
      </trkpt>
      <trkpt lat="44.10593" lon="0.23159">
        <ele>-62</ele>
        <time>2014-12-31T13:02:55Z</time>
      </trkpt>
      <trkpt lat="44.10511" lon="0.23117">
        <ele>-77</ele>
        <time>2014-12-31T13:03:25Z</time>
      </trkpt>
      <trkpt lat="44.10443" lon="0.2308">
        <ele>-41</ele>
        <time>2014-12-31T13:03:55Z</time>
      </trkpt>
      <trkpt lat="44.10364" lon="0.23018">
        <ele>-41</ele>
        <time>2014-12-31T13:04:25Z</time>
      </trkpt>
      <trkpt lat="44.1029" lon="0.22947">
        <ele>-34</ele>
        <time>2014-12-31T13:04:55Z</time>
      </trkpt>
      <trkpt lat="44.10203" lon="0.22878">
        <ele>-34</ele>
        <time>2014-12-31T13:05:25Z</time>
      </trkpt>
      <trkpt lat="44.10095" lon="0.22806">
        <ele>-29</ele>
        <time>2014-12-31T13:05:56Z</time>
      </trkpt>
      <trkpt lat="44.09983" lon="0.22753">
        <ele>-27</ele>
        <time>2014-12-31T13:06:26Z</time>
      </trkpt>
      <trkpt lat="44.09877" lon="0.22681">
        <ele>-36</ele>
        <time>2014-12-31T13:06:56Z</time>
      </trkpt>
      <trkpt lat="44.09725" lon="0.22599">
        <ele>-36</ele>
        <time>2014-12-31T13:07:26Z</time>
      </trkpt>
      <trkpt lat="44.09595" lon="0.22487">
        <ele>-36</ele>
        <time>2014-12-31T13:07:56Z</time>
      </trkpt>
      <trkpt lat="44.0944" lon="0.22386">
        <ele>-48</ele>
        <time>2014-12-31T13:08:27Z</time>
      </trkpt>
      <trkpt lat="44.09277" lon="0.22368">
        <ele>-42</ele>
        <time>2014-12-31T13:08:57Z</time>
      </trkpt>
      <trkpt lat="44.09131" lon="0.22382">
        <ele>-37</ele>
        <time>2014-12-31T13:09:27Z</time>
      </trkpt>
      <trkpt lat="44.08996" lon="0.22403">
        <ele>-42</ele>
        <time>2014-12-31T13:09:57Z</time>
      </trkpt>
      <trkpt lat="44.08762" lon="0.22467">
        <ele>-54</ele>
        <time>2014-12-31T13:10:27Z</time>
      </trkpt>
      <trkpt lat="44.08667" lon="0.22477">
        <ele>-61</ele>
        <time>2014-12-31T13:10:57Z</time>
      </trkpt>
      <trkpt lat="44.08656" lon="0.22485">
        <ele>-61</ele>
        <time>2014-12-31T13:11:28Z</time>
      </trkpt>
      <trkpt lat="44.08652" lon="0.22487">
        <ele>-61</ele>
        <time>2014-12-31T13:11:58Z</time>
      </trkpt>
      <trkpt lat="44.08649" lon="0.22487">
        <ele>-61</ele>
        <time>2014-12-31T13:12:28Z</time>
      </trkpt>
      <trkpt lat="44.08651" lon="0.22486">
        <ele>-61</ele>
        <time>2014-12-31T13:12:58Z</time>
      </trkpt>
      <trkpt lat="44.08652" lon="0.22554">
        <ele>-48</ele>
        <time>2014-12-31T13:13:28Z</time>
      </trkpt>
      <trkpt lat="44.08658" lon="0.22676">
        <ele>-70</ele>
        <time>2014-12-31T13:13:58Z</time>
      </trkpt>
      <trkpt lat="44.08642" lon="0.22816">
        <ele>-59</ele>
        <time>2014-12-31T13:14:29Z</time>
      </trkpt>
      <trkpt lat="44.08612" lon="0.22933">
        <ele>-63</ele>
        <time>2014-12-31T13:14:59Z</time>
      </trkpt>
      <trkpt lat="44.08587" lon="0.23019">
        <ele>-52</ele>
        <time>2014-12-31T13:15:29Z</time>
      </trkpt>
      <trkpt lat="44.08569" lon="0.23059">
        <ele>-59</ele>
        <time>2014-12-31T13:15:59Z</time>
      </trkpt>
      <trkpt lat="44.08555" lon="0.23122">
        <ele>-49</ele>
        <time>2014-12-31T13:16:29Z</time>
      </trkpt>
      <trkpt lat="44.08545" lon="0.23204">
        <ele>-47</ele>
        <time>2014-12-31T13:16:59Z</time>
      </trkpt>
      <trkpt lat="44.08523" lon="0.2328">
        <ele>-47</ele>
        <time>2014-12-31T13:17:30Z</time>
      </trkpt>
      <trkpt lat="44.08486" lon="0.23343">
        <ele>-54</ele>
        <time>2014-12-31T13:18:00Z</time>
      </trkpt>
      <trkpt lat="44.08432" lon="0.23434">
        <ele>-48</ele>
        <time>2014-12-31T13:18:30Z</time>
      </trkpt>
      <trkpt lat="44.08378" lon="0.23523">
        <ele>-73</ele>
        <time>2014-12-31T13:19:00Z</time>
      </trkpt>
      <trkpt lat="44.08325" lon="0.23609">
        <ele>-51</ele>
        <time>2014-12-31T13:19:30Z</time>
      </trkpt>
      <trkpt lat="44.08245" lon="0.23746">
        <ele>-57</ele>
        <time>2014-12-31T13:20:00Z</time>
      </trkpt>
      <trkpt lat="44.08185" lon="0.23894">
        <ele>-63</ele>
        <time>2014-12-31T13:20:31Z</time>
      </trkpt>
      <trkpt lat="44.08098" lon="0.24039">
        <ele>-75</ele>
        <time>2014-12-31T13:21:01Z</time>
      </trkpt>
      <trkpt lat="44.08073" lon="0.24086">
        <ele>-75</ele>
        <time>2014-12-31T13:21:31Z</time>
      </trkpt>
      <trkpt lat="44.08015" lon="0.24128">
        <ele>-90</ele>
        <time>2014-12-31T13:22:01Z</time>
      </trkpt>
      <trkpt lat="44.07907" lon="0.24196">
        <ele>-81</ele>
        <time>2014-12-31T13:22:31Z</time>
      </trkpt>
      <trkpt lat="44.07749" lon="0.24313">
        <ele>-96</ele>
        <time>2014-12-31T13:23:01Z</time>
      </trkpt>
      <trkpt lat="44.07625" lon="0.24527">
        <ele>-101</ele>
        <time>2014-12-31T13:23:32Z</time>
      </trkpt>
      <trkpt lat="44.07609" lon="0.24623">
        <ele>-101</ele>
        <time>2014-12-31T13:24:02Z</time>
      </trkpt>
      <trkpt lat="44.0775" lon="0.24648">
        <ele>-106</ele>
        <time>2014-12-31T13:24:32Z</time>
      </trkpt>
      <trkpt lat="44.07859" lon="0.24663">
        <ele>-97</ele>
        <time>2014-12-31T13:25:02Z</time>
      </trkpt>
      <trkpt lat="44.07991" lon="0.24719">
        <ele>-97</ele>
        <time>2014-12-31T13:25:32Z</time>
      </trkpt>
      <trkpt lat="44.08106" lon="0.24801">
        <ele>-97</ele>
        <time>2014-12-31T13:26:03Z</time>
      </trkpt>
      <trkpt lat="44.08227" lon="0.24815">
        <ele>-114</ele>
        <time>2014-12-31T13:26:33Z</time>
      </trkpt>
      <trkpt lat="44.08312" lon="0.24849">
        <ele>-90</ele>
        <time>2014-12-31T13:27:03Z</time>
      </trkpt>
      <trkpt lat="44.0841" lon="0.24929">
        <ele>-120</ele>
        <time>2014-12-31T13:27:33Z</time>
      </trkpt>
      <trkpt lat="44.08499" lon="0.25005">
        <ele>-93</ele>
        <time>2014-12-31T13:28:03Z</time>
      </trkpt>
      <trkpt lat="44.08592" lon="0.25089">
        <ele>-103</ele>
        <time>2014-12-31T13:28:33Z</time>
      </trkpt>
      <trkpt lat="44.0868" lon="0.25154">
        <ele>-103</ele>
        <time>2014-12-31T13:29:04Z</time>
      </trkpt>
      <trkpt lat="44.08768" lon="0.25254">
        <ele>-93</ele>
        <time>2014-12-31T13:29:34Z</time>
      </trkpt>
      <trkpt lat="44.08866" lon="0.25313">
        <ele>-104</ele>
        <time>2014-12-31T13:30:04Z</time>
      </trkpt>
      <trkpt lat="44.08919" lon="0.25369">
        <ele>-124</ele>
        <time>2014-12-31T13:30:34Z</time>
      </trkpt>
      <trkpt lat="44.08952" lon="0.25438">
        <ele>-91</ele>
        <time>2014-12-31T13:31:04Z</time>
      </trkpt>
      <trkpt lat="44.0896" lon="0.25475">
        <ele>-96</ele>
        <time>2014-12-31T13:31:34Z</time>
      </trkpt>
      <trkpt lat="44.08962" lon="0.25486">
        <ele>-96</ele>
        <time>2014-12-31T13:32:05Z</time>
      </trkpt>
      <trkpt lat="44.08989" lon="0.25585">
        <ele>-100</ele>
        <time>2014-12-31T13:32:35Z</time>
      </trkpt>
      <trkpt lat="44.09034" lon="0.25642">
        <ele>-98</ele>
        <time>2014-12-31T13:33:05Z</time>
      </trkpt>
      <trkpt lat="44.09116" lon="0.25689">
        <ele>-110</ele>
        <time>2014-12-31T13:33:35Z</time>
      </trkpt>
      <trkpt lat="44.09192" lon="0.25725">
        <ele>-101</ele>
        <time>2014-12-31T13:34:05Z</time>
      </trkpt>
      <trkpt lat="44.09267" lon="0.25759">
        <ele>-130</ele>
        <time>2014-12-31T13:34:36Z</time>
      </trkpt>
      <trkpt lat="44.09334" lon="0.25811">
        <ele>-111</ele>
        <time>2014-12-31T13:35:06Z</time>
      </trkpt>
      <trkpt lat="44.09394" lon="0.25862">
        <ele>-112</ele>
        <time>2014-12-31T13:35:36Z</time>
      </trkpt>
      <trkpt lat="44.09468" lon="0.2594">
        <ele>-107</ele>
        <time>2014-12-31T13:36:06Z</time>
      </trkpt>
      <trkpt lat="44.09544" lon="0.26026">
        <ele>-121</ele>
        <time>2014-12-31T13:36:36Z</time>
      </trkpt>
      <trkpt lat="44.0961" lon="0.26095">
        <ele>-98</ele>
        <time>2014-12-31T13:37:07Z</time>
      </trkpt>
      <trkpt lat="44.09682" lon="0.26145">
        <ele>-104</ele>
        <time>2014-12-31T13:37:37Z</time>
      </trkpt>
      <trkpt lat="44.09747" lon="0.26196">
        <ele>-91</ele>
        <time>2014-12-31T13:38:07Z</time>
      </trkpt>
      <trkpt lat="44.09802" lon="0.26196">
        <ele>-116</ele>
        <time>2014-12-31T13:38:37Z</time>
      </trkpt>
      <trkpt lat="44.09858" lon="0.26179">
        <ele>-114</ele>
        <time>2014-12-31T13:39:07Z</time>
      </trkpt>
      <trkpt lat="44.09882" lon="0.26166">
        <ele>-98</ele>
        <time>2014-12-31T13:39:37Z</time>
      </trkpt>
      <trkpt lat="44.0991" lon="0.26157">
        <ele>-118</ele>
        <time>2014-12-31T13:40:08Z</time>
      </trkpt>
      <trkpt lat="44.09962" lon="0.2614">
        <ele>-120</ele>
        <time>2014-12-31T13:40:38Z</time>
      </trkpt>
      <trkpt lat="44.10025" lon="0.2612">
        <ele>-92</ele>
        <time>2014-12-31T13:41:08Z</time>
      </trkpt>
      <trkpt lat="44.10088" lon="0.26119">
        <ele>-89</ele>
        <time>2014-12-31T13:41:38Z</time>
      </trkpt>
      <trkpt lat="44.10165" lon="0.26112">
        <ele>-96</ele>
        <time>2014-12-31T13:42:08Z</time>
      </trkpt>
      <trkpt lat="44.10236" lon="0.26086">
        <ele>-103</ele>
        <time>2014-12-31T13:42:38Z</time>
      </trkpt>
      <trkpt lat="44.10309" lon="0.26076">
        <ele>-115</ele>
        <time>2014-12-31T13:43:09Z</time>
      </trkpt>
      <trkpt lat="44.10369" lon="0.26028">
        <ele>-95</ele>
        <time>2014-12-31T13:43:39Z</time>
      </trkpt>
      <trkpt lat="44.10431" lon="0.25953">
        <ele>-119</ele>
        <time>2014-12-31T13:44:09Z</time>
      </trkpt>
      <trkpt lat="44.10508" lon="0.25882">
        <ele>-102</ele>
        <time>2014-12-31T13:44:39Z</time>
      </trkpt>
      <trkpt lat="44.10566" lon="0.25828">
        <ele>-109</ele>
        <time>2014-12-31T13:45:09Z</time>
      </trkpt>
      <trkpt lat="44.1063" lon="0.25835">
        <ele>-101</ele>
        <time>2014-12-31T13:45:40Z</time>
      </trkpt>
      <trkpt lat="44.10681" lon="0.25848">
        <ele>-114</ele>
        <time>2014-12-31T13:46:10Z</time>
      </trkpt>
      <trkpt lat="44.10735" lon="0.25857">
        <ele>-106</ele>
        <time>2014-12-31T13:46:40Z</time>
      </trkpt>
      <trkpt lat="44.10789" lon="0.25851">
        <ele>-106</ele>
        <time>2014-12-31T13:47:10Z</time>
      </trkpt>
      <trkpt lat="44.10799" lon="0.25854">
        <ele>-106</ele>
        <time>2014-12-31T13:47:40Z</time>
      </trkpt>
      <trkpt lat="44.10794" lon="0.25853">
        <ele>-106</ele>
        <time>2014-12-31T13:48:10Z</time>
      </trkpt>
      <trkpt lat="44.10799" lon="0.25853">
        <ele>-106</ele>
        <time>2014-12-31T13:48:41Z</time>
      </trkpt>
      <trkpt lat="44.10795" lon="0.25855">
        <ele>-106</ele>
        <time>2014-12-31T13:49:11Z</time>
      </trkpt>
      <trkpt lat="44.10792" lon="0.25856">
        <ele>-106</ele>
        <time>2014-12-31T13:49:41Z</time>
      </trkpt>
      <trkpt lat="44.10806" lon="0.25846">
        <ele>-137</ele>
        <time>2014-12-31T13:50:11Z</time>
      </trkpt>
      <trkpt lat="44.10826" lon="0.25879">
        <ele>-96</ele>
        <time>2014-12-31T13:50:41Z</time>
      </trkpt>
      <trkpt lat="44.10837" lon="0.25929">
        <ele>-102</ele>
        <time>2014-12-31T13:51:12Z</time>
      </trkpt>
      <trkpt lat="44.10855" lon="0.25978">
        <ele>-84</ele>
        <time>2014-12-31T13:51:42Z</time>
      </trkpt>
      <trkpt lat="44.10871" lon="0.26032">
        <ele>-74</ele>
        <time>2014-12-31T13:52:12Z</time>
      </trkpt>
      <trkpt lat="44.10892" lon="0.26062">
        <ele>-81</ele>
        <time>2014-12-31T13:52:42Z</time>
      </trkpt>
      <trkpt lat="44.10891" lon="0.26046">
        <ele>-81</ele>
        <time>2014-12-31T13:53:12Z</time>
      </trkpt>
      <trkpt lat="44.10895" lon="0.26044">
        <ele>-81</ele>
        <time>2014-12-31T13:53:42Z</time>
      </trkpt>
      <trkpt lat="44.10897" lon="0.26045">
        <ele>-81</ele>
        <time>2014-12-31T13:54:13Z</time>
      </trkpt>
      <trkpt lat="44.10882" lon="0.2602">
        <ele>-89</ele>
        <time>2014-12-31T13:54:43Z</time>
      </trkpt>
      <trkpt lat="44.10857" lon="0.25905">
        <ele>-78</ele>
        <time>2014-12-31T13:55:13Z</time>
      </trkpt>
      <trkpt lat="44.10863" lon="0.25796">
        <ele>-83</ele>
        <time>2014-12-31T13:55:43Z</time>
      </trkpt>
      <trkpt lat="44.10864" lon="0.25763">
        <ele>-83</ele>
        <time>2014-12-31T13:56:13Z</time>
      </trkpt>
      <trkpt lat="44.10886" lon="0.25641">
        <ele>-77</ele>
        <time>2014-12-31T13:56:44Z</time>
      </trkpt>
      <trkpt lat="44.10922" lon="0.25505">
        <ele>-76</ele>
        <time>2014-12-31T13:57:14Z</time>
      </trkpt>
      <trkpt lat="44.10941" lon="0.25344">
        <ele>-76</ele>
        <time>2014-12-31T13:57:44Z</time>
      </trkpt>
      <trkpt lat="44.10946" lon="0.25175">
        <ele>-76</ele>
        <time>2014-12-31T13:58:14Z</time>
      </trkpt>
      <trkpt lat="44.1094" lon="0.25023">
        <ele>-81</ele>
        <time>2014-12-31T13:58:44Z</time>
      </trkpt>
      <trkpt lat="44.10881" lon="0.24802">
        <ele>-97</ele>
        <time>2014-12-31T13:59:14Z</time>
      </trkpt>
      <trkpt lat="44.1083" lon="0.24759">
        <ele>-98</ele>
        <time>2014-12-31T13:59:45Z</time>
      </trkpt>
      <trkpt lat="44.10767" lon="0.24758">
        <ele>-98</ele>
        <time>2014-12-31T14:00:15Z</time>
      </trkpt>
      <trkpt lat="44.10715" lon="0.24774">
        <ele>-98</ele>
        <time>2014-12-31T14:00:45Z</time>
      </trkpt>
      <trkpt lat="44.10678" lon="0.24772">
        <ele>-98</ele>
        <time>2014-12-31T14:01:15Z</time>
      </trkpt>
      <trkpt lat="44.10649" lon="0.2476">
        <ele>-92</ele>
        <time>2014-12-31T14:01:45Z</time>
      </trkpt>
      <trkpt lat="44.10622" lon="0.24756">
        <ele>-92</ele>
        <time>2014-12-31T14:02:16Z</time>
      </trkpt>
      <trkpt lat="44.10598" lon="0.24747">
        <ele>-88</ele>
        <time>2014-12-31T14:02:46Z</time>
      </trkpt>
      <trkpt lat="44.10576" lon="0.24735">
        <ele>-83</ele>
        <time>2014-12-31T14:03:16Z</time>
      </trkpt>
      <trkpt lat="44.10556" lon="0.24723">
        <ele>-79</ele>
        <time>2014-12-31T14:03:46Z</time>
      </trkpt>
      <trkpt lat="44.10548" lon="0.24715">
        <ele>-79</ele>
        <time>2014-12-31T14:04:17Z</time>
      </trkpt>
      <trkpt lat="44.10543" lon="0.24685">
        <ele>-79</ele>
        <time>2014-12-31T14:04:47Z</time>
      </trkpt>
      <trkpt lat="44.10541" lon="0.24651">
        <ele>-73</ele>
        <time>2014-12-31T14:05:17Z</time>
      </trkpt>
      <trkpt lat="44.10535" lon="0.24616">
        <ele>-73</ele>
        <time>2014-12-31T14:05:47Z</time>
      </trkpt>
      <trkpt lat="44.10529" lon="0.24587">
        <ele>-66</ele>
        <time>2014-12-31T14:06:17Z</time>
      </trkpt>
      <trkpt lat="44.10522" lon="0.24558">
        <ele>-62</ele>
        <time>2014-12-31T14:06:48Z</time>
      </trkpt>
      <trkpt lat="44.10516" lon="0.24532">
        <ele>-62</ele>
        <time>2014-12-31T14:07:18Z</time>
      </trkpt>
      <trkpt lat="44.1051" lon="0.2451">
        <ele>-54</ele>
        <time>2014-12-31T14:07:48Z</time>
      </trkpt>
      <trkpt lat="44.10509" lon="0.2449">
        <ele>-54</ele>
        <time>2014-12-31T14:08:18Z</time>
      </trkpt>
      <trkpt lat="44.10509" lon="0.24483">
        <ele>-54</ele>
        <time>2014-12-31T14:08:48Z</time>
      </trkpt>
      <trkpt lat="44.10504" lon="0.24457">
        <ele>-42</ele>
        <time>2014-12-31T14:09:19Z</time>
      </trkpt>
      <trkpt lat="44.10502" lon="0.24383">
        <ele>-64</ele>
        <time>2014-12-31T14:09:49Z</time>
      </trkpt>
      <trkpt lat="44.10521" lon="0.24266">
        <ele>-62</ele>
        <time>2014-12-31T14:10:19Z</time>
      </trkpt>
      <trkpt lat="44.10533" lon="0.24238">
        <ele>-54</ele>
        <time>2014-12-31T14:10:49Z</time>
      </trkpt>
      <trkpt lat="44.10533" lon="0.24238">
        <ele>-54</ele>
        <time>2014-12-31T14:11:20Z</time>
      </trkpt>
      <trkpt lat="44.1054" lon="0.2423">
        <ele>-54</ele>
        <time>2014-12-31T14:11:50Z</time>
      </trkpt>
      <trkpt lat="44.10576" lon="0.24122">
        <ele>-59</ele>
        <time>2014-12-31T14:12:20Z</time>
      </trkpt>
      <trkpt lat="44.10621" lon="0.23967">
        <ele>-63</ele>
        <time>2014-12-31T14:12:50Z</time>
      </trkpt>
      <trkpt lat="44.10633" lon="0.23742">
        <ele>-70</ele>
        <time>2014-12-31T14:13:20Z</time>
      </trkpt>
      <trkpt lat="44.10604" lon="0.23603">
        <ele>-68</ele>
        <time>2014-12-31T14:13:50Z</time>
      </trkpt>
      <trkpt lat="44.10597" lon="0.235">
        <ele>-62</ele>
        <time>2014-12-31T14:14:21Z</time>
      </trkpt>
      <trkpt lat="44.10621" lon="0.234">
        <ele>-51</ele>
        <time>2014-12-31T14:14:51Z</time>
      </trkpt>
      <trkpt lat="44.10668" lon="0.23303">
        <ele>-45</ele>
        <time>2014-12-31T14:15:21Z</time>
      </trkpt>
      <trkpt lat="44.10661" lon="0.23222">
        <ele>-54</ele>
        <time>2014-12-31T14:15:51Z</time>
      </trkpt>
    </trkseg>
  </trk>
</gpx>